Crossville, Tennessee
Current Conditions -  °F | °C
As of 6:53 PM on Monday 24 Nov 2014 (Local Time) from KCSV Reporting Station
Clear Clear  
Wind Chill: 52°   Ceiling: Unl
Heat Index: 52°   Visibility: 10mi
Dew Point: 31°   Wind: 5mph
Humidity: 45%   Direction: 240°WSW
Pressure: 29.93"   Gusts: NA
Location:  35.95°N, 85.03°W
Report Text: KCSV 250053Z AUTO 24004KT 10SM CLR 11/M01 A2993 RMK AO2 SLP127 T01111006
Loading
Personal Weather Stations






























Interactive Weather Map New forecast layout! Learn more

10-Day Weather Forecast

Advertisements
Track Severe Weather on mobile